createdAt,value
2022-12-16T00:00:27.380Z,29.20
2022-12-16T00:02:29.032Z,30.55
2022-12-16T00:04:30.505Z,29.27
2022-12-16T00:06:33.941Z,27.73
2022-12-16T00:08:38.374Z,29.35
2022-12-16T00:10:55.141Z,42.60
2022-12-16T00:12:56.626Z,38.67
2022-12-16T00:14:58.140Z,32.33
2022-12-16T00:16:59.590Z,27.90
2022-12-16T00:19:01.099Z,27.05
2022-12-16T00:21:03.163Z,25.38
2022-12-16T00:23:04.959Z,23.15
2022-12-16T00:25:07.032Z,26.23
2022-12-16T00:27:08.535Z,24.85
2022-12-16T00:29:11.116Z,33.78
2022-12-16T00:31:12.981Z,24.95
2022-12-16T00:33:14.445Z,28.58
2022-12-16T00:35:16.013Z,26.17
2022-12-16T00:37:17.579Z,26.25
2022-12-16T00:39:19.059Z,27.52
2022-12-16T00:41:21.000Z,25.52
2022-12-16T00:43:22.615Z,26.23
2022-12-16T00:45:24.132Z,26.48
2022-12-16T00:47:25.586Z,28.88
2022-12-16T00:49:27.107Z,25.02
2022-12-16T00:51:28.599Z,26.63
2022-12-16T00:53:30.424Z,27.95
2022-12-16T00:55:32.649Z,21.52
2022-12-16T00:57:34.250Z,23.83
2022-12-16T00:59:35.675Z,23.85
2022-12-16T01:01:37.287Z,23.90
2022-12-16T01:03:39.567Z,21.52
2022-12-16T01:05:41.283Z,29.35
2022-12-16T01:07:43.529Z,21.50
2022-12-16T01:09:44.978Z,26.77
2022-12-16T01:11:46.470Z,27.55
2022-12-16T01:13:52.103Z,26.33
2022-12-16T01:15:54.139Z,26.77
2022-12-16T01:17:55.615Z,22.80
2022-12-16T01:19:57.061Z,26.77
2022-12-16T01:21:58.541Z,23.75
2022-12-16T01:24:00.050Z,23.80
2022-12-16T01:26:02.258Z,23.33
2022-12-16T01:28:04.181Z,24.75
2022-12-16T01:30:06.333Z,24.67
2022-12-16T01:32:09.981Z,25.00
2022-12-16T01:34:11.442Z,23.20
2022-12-16T01:36:13.266Z,21.83
2022-12-16T01:38:15.605Z,26.58
2022-12-16T01:40:19.469Z,29.90
2022-12-16T01:42:22.047Z,23.20
2022-12-16T01:44:26.361Z,22.85
2022-12-16T01:46:28.063Z,22.05
2022-12-16T01:48:38.321Z,24.35
2022-12-16T01:50:39.873Z,22.30
2022-12-16T01:52:45.598Z,24.95
2022-12-16T01:55:02.242Z,30.73
2022-12-16T01:57:09.607Z,25.00
2022-12-16T01:59:16.242Z,24.55
2022-12-16T02:01:17.968Z,23.08
2022-12-16T02:03:20.102Z,25.63
2022-12-16T02:05:22.364Z,24.00
2022-12-16T02:07:25.612Z,21.45
2022-12-16T02:09:27.165Z,23.92
2022-12-16T02:11:44.784Z,24.00
2022-12-16T02:14:01.159Z,25.90
2022-12-16T02:16:18.683Z,24.10
2022-12-16T02:18:33.657Z,22.48
2022-12-16T02:20:44.848Z,23.08
2022-12-16T02:23:12.772Z,24.67
2022-12-16T02:25:50.907Z,23.30
2022-12-16T02:27:55.906Z,22.08
2022-12-16T02:30:26.751Z,25.63
2022-12-16T02:32:49.704Z,21.35
2022-12-16T02:35:04.038Z,24.30
2022-12-16T02:37:30.641Z,23.90
2022-12-16T02:39:37.323Z,22.52
2022-12-16T02:41:47.838Z,27.27
2022-12-16T02:43:57.746Z,27.38
2022-12-16T02:45:59.752Z,23.00
2022-12-16T02:48:01.337Z,21.90
2022-12-16T02:50:02.907Z,20.88
2022-12-16T02:52:04.410Z,24.88
2022-12-16T02:54:09.420Z,27.55
2022-12-16T02:56:18.486Z,22.75
2022-12-16T02:58:23.425Z,23.35
2022-12-16T03:00:26.363Z,21.05
2022-12-16T03:02:57.176Z,24.33
2022-12-16T03:05:06.449Z,23.23
2022-12-16T03:07:12.165Z,31.95
2022-12-16T03:09:21.254Z,20.65
2022-12-16T03:11:25.570Z,24.35
2022-12-16T03:13:33.064Z,25.02
2022-12-16T03:15:36.028Z,23.38
2022-12-16T03:17:39.483Z,23.55
2022-12-16T03:19:46.086Z,26.30
2022-12-16T03:22:09.141Z,22.85
2022-12-16T03:24:13.966Z,25.50
2022-12-16T03:26:30.465Z,24.70
2022-12-16T03:28:58.823Z,31.15
2022-12-16T03:31:12.349Z,25.25
2022-12-16T03:33:24.766Z,22.95
2022-12-16T03:35:35.875Z,23.83
2022-12-16T03:37:38.694Z,23.95
2022-12-16T03:39:47.733Z,27.63
2022-12-16T03:41:54.368Z,24.15
2022-12-16T03:43:56.322Z,20.83
2022-12-16T03:46:04.250Z,22.10
2022-12-16T03:48:11.214Z,24.48
2022-12-16T03:50:12.669Z,25.33
2022-12-16T03:52:14.092Z,22.85
2022-12-16T03:54:15.637Z,22.88
2022-12-16T03:56:17.918Z,25.15
2022-12-16T03:58:19.502Z,27.48
2022-12-16T04:00:21.493Z,26.17
2022-12-16T04:02:23.130Z,28.42
2022-12-16T04:04:24.891Z,24.85
2022-12-16T04:06:26.437Z,30.85
2022-12-16T04:08:28.025Z,29.27
2022-12-16T04:10:48.572Z,26.48
2022-12-16T04:13:08.430Z,22.35
2022-12-16T04:15:29.080Z,28.27
2022-12-16T04:17:48.730Z,27.95
2022-12-16T04:20:09.448Z,25.05
2022-12-16T04:22:36.401Z,26.92
2022-12-16T04:24:38.268Z,28.40
2022-12-16T04:26:58.209Z,27.40
2022-12-16T04:28:59.652Z,27.27
2022-12-16T04:31:01.295Z,30.02
2022-12-16T04:33:25.014Z,31.80
2022-12-16T04:35:45.307Z,26.45
2022-12-16T04:38:05.222Z,25.45
2022-12-16T04:40:25.973Z,24.00
2022-12-16T04:42:45.703Z,29.58
2022-12-16T04:45:05.918Z,33.00
2022-12-16T04:47:25.676Z,24.95
2022-12-16T04:49:46.086Z,25.60
2022-12-16T04:52:05.898Z,26.95
2022-12-16T04:54:25.859Z,26.08
2022-12-16T04:56:45.711Z,27.83
2022-12-16T04:59:05.575Z,30.13
2022-12-16T05:01:25.815Z,25.40
2022-12-16T05:03:46.371Z,27.83
2022-12-16T05:06:06.627Z,31.80
2022-12-16T05:08:26.399Z,31.58
2022-12-16T05:10:46.388Z,32.33
2022-12-16T05:13:06.370Z,31.15
2022-12-16T05:15:26.719Z,26.75
2022-12-16T05:17:46.611Z,26.67
2022-12-16T05:20:07.041Z,27.30
2022-12-16T05:22:26.985Z,27.98
2022-12-16T05:24:52.584Z,30.50
2022-12-16T05:27:12.801Z,27.35
2022-12-16T05:29:32.818Z,24.85
2022-12-16T05:31:52.642Z,28.30
2022-12-16T05:34:12.789Z,26.88
2022-12-16T05:36:32.495Z,29.55
2022-12-16T05:38:52.608Z,29.70
2022-12-16T05:41:12.602Z,28.27
2022-12-16T05:43:33.157Z,25.67
2022-12-16T05:45:53.854Z,26.90
2022-12-16T05:48:13.734Z,27.45
2022-12-16T05:50:34.175Z,26.17
2022-12-16T05:52:54.359Z,25.33
2022-12-16T05:55:14.134Z,25.83
2022-12-16T05:57:33.967Z,27.83
2022-12-16T05:59:53.831Z,29.67
2022-12-16T06:02:13.628Z,29.65
2022-12-16T06:04:41.360Z,25.20
2022-12-16T06:07:01.256Z,25.50
2022-12-16T06:09:22.129Z,23.00
2022-12-16T06:11:41.974Z,24.00
2022-12-16T06:14:01.879Z,26.58
2022-12-16T06:16:21.680Z,26.02
2022-12-16T06:18:41.492Z,22.58
2022-12-16T06:21:02.495Z,24.98
2022-12-16T06:23:25.538Z,23.83
2022-12-16T06:25:45.838Z,24.17
2022-12-16T06:28:10.871Z,29.50
2022-12-16T06:30:31.247Z,25.63
2022-12-16T06:32:51.098Z,24.42
2022-12-16T06:35:11.041Z,25.80
2022-12-16T06:37:31.336Z,24.70
2022-12-16T06:39:53.047Z,34.28
2022-12-16T06:42:13.167Z,35.83
2022-12-16T06:44:32.985Z,30.23
2022-12-16T06:46:52.871Z,27.02
2022-12-16T06:49:12.741Z,26.65
2022-12-16T06:51:32.692Z,25.88
2022-12-16T06:53:52.622Z,27.67
2022-12-16T06:56:12.505Z,26.75
2022-12-16T06:58:32.970Z,34.78
2022-12-16T07:00:52.800Z,29.05
2022-12-16T07:03:12.824Z,34.55
2022-12-16T07:05:32.944Z,38.28
2022-12-16T07:07:52.705Z,38.70
2022-12-16T07:10:12.534Z,45.20
2022-12-16T07:12:32.322Z,50.65
2022-12-16T07:14:52.231Z,45.72
2022-12-16T07:17:17.067Z,53.10
2022-12-16T07:19:37.735Z,56.53
2022-12-16T07:21:57.708Z,55.47
2022-12-16T07:24:17.833Z,56.22
2022-12-16T07:26:37.691Z,56.17
2022-12-16T07:28:57.793Z,51.78
2022-12-16T07:31:18.194Z,59.80
2022-12-16T07:33:38.444Z,68.03
2022-12-16T07:36:01.328Z,61.90
2022-12-16T07:38:21.270Z,59.25
2022-12-16T07:40:41.446Z,73.38
2022-12-16T07:43:04.336Z,78.15
2022-12-16T07:45:25.096Z,67.50
2022-12-16T07:47:45.044Z,62.50
2022-12-16T07:50:04.958Z,44.67
2022-12-16T07:52:24.722Z,54.53
2022-12-16T07:54:45.103Z,52.05
2022-12-16T07:57:04.865Z,54.15
2022-12-16T07:59:24.585Z,57.28
2022-12-16T08:01:44.634Z,51.85
2022-12-16T08:04:05.544Z,56.03
2022-12-16T08:06:25.519Z,59.67
2022-12-16T08:08:45.342Z,57.38
2022-12-16T08:11:05.149Z,61.28
2022-12-16T08:13:32.364Z,61.97
2022-12-16T08:15:52.421Z,65.93
2022-12-16T08:18:12.764Z,57.33
2022-12-16T08:20:33.131Z,60.47
2022-12-16T08:22:52.875Z,62.30
2022-12-16T08:25:15.183Z,72.57
2022-12-16T08:27:35.103Z,72.10
2022-12-16T08:29:55.516Z,77.28
2022-12-16T08:32:15.307Z,88.90
2022-12-16T08:34:35.015Z,73.40
2022-12-16T08:36:54.735Z,72.90
2022-12-16T08:39:15.466Z,95.18
2022-12-16T08:41:35.248Z,86.75
2022-12-16T08:43:55.031Z,78.18
2022-12-16T08:46:15.313Z,79.15
2022-12-16T08:48:35.351Z,80.97
2022-12-16T08:51:14.986Z,79.15
2022-12-16T08:53:35.358Z,86.35
2022-12-16T08:55:56.068Z,89.15
2022-12-16T08:58:16.024Z,94.80
2022-12-16T09:00:36.380Z,92.30
2022-12-16T09:02:56.289Z,90.03
2022-12-16T09:05:16.388Z,81.13
2022-12-16T09:07:37.254Z,96.07
2022-12-16T09:09:56.982Z,94.55
2022-12-16T09:12:16.763Z,90.95
2022-12-16T09:14:36.987Z,93.80
2022-12-16T09:16:56.819Z,92.47
2022-12-16T09:19:16.856Z,81.63
2022-12-16T09:21:36.893Z,89.20
2022-12-16T09:23:56.605Z,84.57
2022-12-16T09:26:16.524Z,85.70
2022-12-16T09:28:36.793Z,87.47
2022-12-16T09:30:56.712Z,87.70
2022-12-16T09:33:16.668Z,81.95
2022-12-16T09:35:36.512Z,79.85
2022-12-16T09:37:56.382Z,79.20
2022-12-16T09:40:16.137Z,75.22
2022-12-16T09:43:01.057Z,76.75
2022-12-16T09:46:09.573Z,73.00
2022-12-16T09:48:41.748Z,69.82
2022-12-16T09:51:03.046Z,73.18
2022-12-16T09:53:28.887Z,72.25
2022-12-16T09:55:54.316Z,65.28
2022-12-16T09:58:14.194Z,63.05
2022-12-16T10:00:41.018Z,70.13
2022-12-16T10:03:06.743Z,64.05
2022-12-16T10:05:33.734Z,57.58
2022-12-16T10:07:58.992Z,55.15
2022-12-16T10:10:36.069Z,59.83
2022-12-16T10:13:23.346Z,59.75
2022-12-16T10:16:00.168Z,56.58
2022-12-16T10:18:31.962Z,47.55
2022-12-16T10:21:07.868Z,68.45
2022-12-16T10:23:44.547Z,56.17
2022-12-16T10:26:26.986Z,55.03
2022-12-16T10:29:06.207Z,49.60
2022-12-16T10:31:34.936Z,43.25
2022-12-16T10:33:55.536Z,55.72
2022-12-16T10:36:16.324Z,45.30
2022-12-16T10:38:44.109Z,36.25
2022-12-16T10:41:04.972Z,28.38
2022-12-16T10:43:33.758Z,37.53
2022-12-16T10:46:02.919Z,44.75
2022-12-16T10:48:23.106Z,41.67
2022-12-16T10:50:42.780Z,43.95
2022-12-16T10:53:15.697Z,38.35
2022-12-16T10:55:53.871Z,42.10
2022-12-16T10:58:41.079Z,39.33
2022-12-16T11:01:05.540Z,42.47
2022-12-16T11:03:52.952Z,36.33
2022-12-16T11:06:19.570Z,32.78
2022-12-16T11:08:51.971Z,37.72
2022-12-16T11:11:12.697Z,29.70
2022-12-16T11:13:40.812Z,35.28
2022-12-16T11:16:02.168Z,33.08
2022-12-16T11:18:27.901Z,36.83
2022-12-16T11:20:47.864Z,38.53
2022-12-16T11:23:26.790Z,36.28
2022-12-16T11:25:47.205Z,35.28
2022-12-16T11:28:06.923Z,38.38
2022-12-16T11:30:42.591Z,37.50
2022-12-16T11:33:16.089Z,35.42
2022-12-16T11:35:38.134Z,40.33
2022-12-16T11:38:01.561Z,35.42
2022-12-16T11:40:21.930Z,38.53
2022-12-16T11:42:47.196Z,41.08
2022-12-16T11:45:15.996Z,39.85
2022-12-16T11:47:51.146Z,37.40
2022-12-16T11:50:23.486Z,35.42
2022-12-16T11:52:44.163Z,31.27
2022-12-16T11:56:02.901Z,37.38
2022-12-16T11:58:24.111Z,41.38
2022-12-16T12:00:44.162Z,38.63
2022-12-16T12:03:23.553Z,35.90
2022-12-16T12:05:56.773Z,39.78
2022-12-16T12:08:23.235Z,34.97
2022-12-16T12:11:02.016Z,34.95
2022-12-16T12:13:46.023Z,46.28
2022-12-16T12:16:23.383Z,27.98
2022-12-16T12:19:09.439Z,26.10
2022-12-16T12:21:35.347Z,28.02
2022-12-16T12:24:20.157Z,38.78
2022-12-16T12:26:48.984Z,29.88
2022-12-16T12:29:24.227Z,30.17
2022-12-16T12:31:44.333Z,27.27
2022-12-16T12:34:33.422Z,26.00
2022-12-16T12:37:16.030Z,34.80
2022-12-16T12:40:08.759Z,26.65
2022-12-16T12:43:08.144Z,32.20
2022-12-16T12:46:05.814Z,28.67
2022-12-16T12:48:45.115Z,39.00
2022-12-16T12:51:16.545Z,36.90
2022-12-16T12:53:45.199Z,28.45
2022-12-16T12:56:08.543Z,29.80
2022-12-16T12:58:31.200Z,38.50
2022-12-16T13:00:58.022Z,29.90
2022-12-16T13:03:48.744Z,38.03
2022-12-16T13:06:09.775Z,34.80
2022-12-16T13:09:00.080Z,37.60
2022-12-16T13:11:35.429Z,35.95
2022-12-16T13:13:55.862Z,34.17
2022-12-16T13:16:15.624Z,36.88
2022-12-16T13:18:39.778Z,36.58
2022-12-16T13:20:59.591Z,36.67
2022-12-16T13:23:55.988Z,45.13
2022-12-16T13:26:23.915Z,35.78
2022-12-16T13:28:59.045Z,36.55
2022-12-16T13:31:25.789Z,28.25
2022-12-16T13:33:48.703Z,31.80
2022-12-16T13:36:17.115Z,28.52
2022-12-16T13:38:36.993Z,28.88
2022-12-16T13:41:18.676Z,28.58
2022-12-16T13:44:13.939Z,28.38
2022-12-16T13:46:36.029Z,28.88
2022-12-16T13:49:13.642Z,26.55
2022-12-16T13:51:55.434Z,32.30
2022-12-16T13:54:18.237Z,34.80
2022-12-16T13:56:51.588Z,28.60
2022-12-16T13:59:19.088Z,30.10
2022-12-16T14:02:04.641Z,30.15
2022-12-16T14:04:28.735Z,28.25
2022-12-16T14:06:50.422Z,26.70
2022-12-16T14:09:10.670Z,29.60
2022-12-16T14:11:55.481Z,30.10
2022-12-16T14:14:44.881Z,30.08
2022-12-16T14:17:14.028Z,26.77
2022-12-16T14:19:55.990Z,29.13
2022-12-16T14:22:31.151Z,28.80
2022-12-16T14:24:51.567Z,30.90
2022-12-16T14:27:12.075Z,26.92
2022-12-16T14:29:45.517Z,29.13
2022-12-16T14:32:05.304Z,27.38
2022-12-16T14:34:33.998Z,26.77
2022-12-16T14:39:17.705Z,27.42
2022-12-16T14:41:42.516Z,30.13
2022-12-16T14:44:02.775Z,32.45
2022-12-16T14:46:23.704Z,33.33
2022-12-16T14:48:56.094Z,33.08
2022-12-16T14:51:15.985Z,31.73
2022-12-16T14:53:42.225Z,34.95
2022-12-16T14:56:02.006Z,31.77
2022-12-16T14:58:32.569Z,32.58
2022-12-16T15:00:53.828Z,30.85
2022-12-16T15:03:25.464Z,31.40
2022-12-16T15:05:50.894Z,33.60
2022-12-16T15:08:13.717Z,29.13
2022-12-16T15:10:34.148Z,33.25
2022-12-16T15:12:58.655Z,30.48
2022-12-16T15:15:22.629Z,30.83
2022-12-16T15:18:06.749Z,31.50
2022-12-16T15:20:38.861Z,38.50
2022-12-16T15:23:05.197Z,28.55
2022-12-16T15:25:26.125Z,34.03
2022-12-16T15:27:54.072Z,32.88
2022-12-16T15:30:13.865Z,33.38
2022-12-16T15:32:45.912Z,32.40
2022-12-16T15:35:07.850Z,32.88
2022-12-16T15:37:40.206Z,30.27
2022-12-16T15:40:00.554Z,28.63
2022-12-16T15:42:20.713Z,33.63
2022-12-16T15:44:41.982Z,27.83
2022-12-16T15:47:06.786Z,34.03
2022-12-16T15:49:47.607Z,31.77
2022-12-16T15:52:08.544Z,30.58
2022-12-16T15:54:35.028Z,43.28
2022-12-16T15:57:03.775Z,42.00
2022-12-16T15:59:41.015Z,58.20
2022-12-16T16:02:05.110Z,56.78
2022-12-16T16:04:46.167Z,50.35
2022-12-16T16:07:08.482Z,45.63
2022-12-16T16:09:32.928Z,43.38
2022-12-16T16:11:52.816Z,40.92
2022-12-16T16:14:14.502Z,39.97
2022-12-16T16:16:43.293Z,40.40
2022-12-16T16:21:23.015Z,45.53
2022-12-16T16:23:42.895Z,44.50
2022-12-16T16:26:04.844Z,55.22
2022-12-16T16:28:27.106Z,65.85
2022-12-16T16:30:47.428Z,57.03
2022-12-16T16:33:07.657Z,54.28
2022-12-16T16:35:27.456Z,61.97
2022-12-16T16:37:47.356Z,56.83
2022-12-16T16:40:07.208Z,56.53
2022-12-16T16:42:29.133Z,57.03
2022-12-16T16:44:49.605Z,58.80
2022-12-16T16:47:09.950Z,56.20
2022-12-16T16:49:56.538Z,57.30
2022-12-16T16:52:16.708Z,54.80
2022-12-16T16:54:36.619Z,57.88
2022-12-16T16:56:57.048Z,58.05
2022-12-16T16:59:16.919Z,58.75
2022-12-16T17:01:38.042Z,50.22
2022-12-16T17:03:58.480Z,56.58
2022-12-16T17:06:18.602Z,49.80
2022-12-16T17:08:38.530Z,54.22
2022-12-16T17:11:02.841Z,50.13
2022-12-16T17:13:22.630Z,49.17
2022-12-16T17:15:48.130Z,50.85
2022-12-16T17:18:08.281Z,50.47
2022-12-16T17:20:33.072Z,52.70
2022-12-16T17:22:53.304Z,47.97
2022-12-16T17:25:13.075Z,52.78
2022-12-16T17:27:35.903Z,48.17
2022-12-16T17:29:55.702Z,57.95
2022-12-16T17:32:15.510Z,49.95
2022-12-16T17:34:35.327Z,53.05
2022-12-16T17:36:55.340Z,57.85
2022-12-16T17:39:15.538Z,53.67
2022-12-16T17:41:35.248Z,54.45
2022-12-16T17:43:55.654Z,81.47
2022-12-16T17:46:25.127Z,64.35
2022-12-16T17:48:45.769Z,60.15
2022-12-16T17:51:06.378Z,62.15
2022-12-16T17:53:26.526Z,57.60
2022-12-16T17:55:46.913Z,55.25
2022-12-16T17:58:06.809Z,56.88
2022-12-16T18:00:27.737Z,48.65
2022-12-16T18:02:47.802Z,48.60
2022-12-16T18:05:07.868Z,51.20
2022-12-16T18:07:27.642Z,49.80
2022-12-16T18:09:47.860Z,51.05
2022-12-16T18:12:07.813Z,50.15
2022-12-16T18:14:27.880Z,43.50
2022-12-16T18:16:47.753Z,45.70
2022-12-16T18:19:09.352Z,47.03
2022-12-16T18:21:31.657Z,53.75
2022-12-16T18:23:51.796Z,50.55
2022-12-16T18:26:23.848Z,40.15
2022-12-16T18:28:43.909Z,36.88
2022-12-16T18:31:04.190Z,45.67
2022-12-16T18:33:24.607Z,42.25
2022-12-16T18:35:44.460Z,40.83
2022-12-16T18:38:04.448Z,44.50
2022-12-16T18:40:25.135Z,45.60
2022-12-16T18:42:45.209Z,51.83
2022-12-16T18:45:08.153Z,49.00
2022-12-16T18:47:28.204Z,51.88
2022-12-16T18:49:47.922Z,52.75
2022-12-16T18:52:08.035Z,50.45
2022-12-16T18:54:27.817Z,46.25
2022-12-16T18:56:48.125Z,55.35
2022-12-16T18:59:08.032Z,52.25
2022-12-16T19:01:29.971Z,52.10
2022-12-16T19:03:49.782Z,56.00
2022-12-16T19:06:13.710Z,60.72
2022-12-16T19:08:34.047Z,63.50
2022-12-16T19:10:53.983Z,52.88
2022-12-16T19:13:14.995Z,55.72
2022-12-16T19:15:39.508Z,53.83
2022-12-16T19:18:20.749Z,55.17
2022-12-16T19:20:40.992Z,60.08
2022-12-16T19:23:00.946Z,56.85
2022-12-16T19:25:20.963Z,56.60
2022-12-16T19:27:41.161Z,52.33
2022-12-16T19:30:00.998Z,58.42
2022-12-16T19:32:21.064Z,56.70
2022-12-16T19:34:40.929Z,58.80
2022-12-16T19:37:01.159Z,55.65
2022-12-16T19:39:20.938Z,58.10
2022-12-16T19:41:40.644Z,59.40
2022-12-16T19:46:40.769Z,67.03
2022-12-16T19:49:00.744Z,58.40
2022-12-16T19:51:21.036Z,56.22
2022-12-16T19:53:40.968Z,61.97
2022-12-16T19:56:00.802Z,55.53
2022-12-16T19:58:20.986Z,56.03
2022-12-16T20:00:40.609Z,51.38
2022-12-16T20:03:00.732Z,57.75
2022-12-16T20:05:20.926Z,48.53
2022-12-16T20:07:40.637Z,54.78
2022-12-16T20:10:00.526Z,56.28
2022-12-16T20:12:20.374Z,58.90
2022-12-16T20:14:40.716Z,54.85
2022-12-16T20:17:01.570Z,53.92
2022-12-16T20:19:21.643Z,49.28
2022-12-16T20:21:47.677Z,52.55
2022-12-16T20:24:08.843Z,56.28
2022-12-16T20:26:29.193Z,51.72
2022-12-16T20:28:49.165Z,52.55
2022-12-16T20:31:09.519Z,53.60
2022-12-16T20:33:33.929Z,49.00
2022-12-16T20:35:56.066Z,56.25
2022-12-16T20:38:16.499Z,46.75
2022-12-16T20:40:36.477Z,54.00
2022-12-16T20:42:56.511Z,53.92
2022-12-16T20:45:16.311Z,51.92
2022-12-16T20:47:36.642Z,60.40
2022-12-16T20:49:56.781Z,46.58
2022-12-16T20:52:16.928Z,48.63
2022-12-16T20:54:37.046Z,47.13
2022-12-16T20:56:56.963Z,48.70
2022-12-16T20:59:17.062Z,47.20
2022-12-16T21:01:36.896Z,42.28
2022-12-16T21:03:57.203Z,44.03
2022-12-16T21:06:16.884Z,47.45
2022-12-16T21:08:36.902Z,51.63
2022-12-16T21:10:57.086Z,47.78
2022-12-16T21:13:27.782Z,49.15
2022-12-16T21:15:47.586Z,48.08
2022-12-16T21:18:07.694Z,42.22
2022-12-16T21:20:28.103Z,44.45
2022-12-16T21:22:48.061Z,46.75
2022-12-16T21:25:08.260Z,44.30
2022-12-16T21:27:28.799Z,46.22
2022-12-16T21:29:48.613Z,47.55
2022-12-16T21:32:08.974Z,45.25
2022-12-16T21:34:29.517Z,47.53
2022-12-16T21:36:49.287Z,49.70
2022-12-16T21:39:09.332Z,47.78
2022-12-16T21:41:29.048Z,51.10
2022-12-16T21:43:48.768Z,49.55
2022-12-16T21:46:12.534Z,50.70
2022-12-16T21:48:32.391Z,53.88
2022-12-16T21:50:52.151Z,58.30
2022-12-16T21:53:11.926Z,48.20
2022-12-16T21:55:32.186Z,47.38
2022-12-16T21:57:53.280Z,49.92
2022-12-16T22:00:13.643Z,48.75
2022-12-16T22:02:33.758Z,51.28
2022-12-16T22:04:53.919Z,58.05
2022-12-16T22:07:13.672Z,55.15
2022-12-16T22:09:34.071Z,57.20
2022-12-16T22:11:53.796Z,57.47
2022-12-16T22:14:16.548Z,51.90
2022-12-16T22:16:36.185Z,58.55
2022-12-16T22:18:56.065Z,51.05
2022-12-16T22:21:22.279Z,54.50
2022-12-16T22:23:47.224Z,50.50
2022-12-16T22:26:13.415Z,47.83
2022-12-16T22:28:33.217Z,46.42
2022-12-16T22:30:52.904Z,49.10
2022-12-16T22:33:16.040Z,42.63
2022-12-16T22:35:35.791Z,41.95
2022-12-16T22:37:56.182Z,44.63
2022-12-16T22:40:16.218Z,42.60
2022-12-16T22:42:36.028Z,44.70
2022-12-16T22:44:56.628Z,42.25
2022-12-16T22:47:16.501Z,42.33
2022-12-16T22:49:36.399Z,41.90
2022-12-16T22:51:56.880Z,41.28
2022-12-16T22:54:17.043Z,40.13
2022-12-16T22:56:36.813Z,44.03
2022-12-16T22:58:57.753Z,42.22
2022-12-16T23:01:17.592Z,50.05
2022-12-16T23:03:37.657Z,43.10
2022-12-16T23:05:58.042Z,45.75
2022-12-16T23:08:18.051Z,47.92
2022-12-16T23:10:37.925Z,40.72
2022-12-16T23:12:57.859Z,39.58
2022-12-16T23:15:17.734Z,45.83
2022-12-16T23:17:38.070Z,40.58
2022-12-16T23:20:02.472Z,41.20
2022-12-16T23:22:22.528Z,44.45
2022-12-16T23:24:42.544Z,43.22
2022-12-16T23:27:03.014Z,44.00
2022-12-16T23:29:23.364Z,42.25
2022-12-16T23:31:43.374Z,63.03
2022-12-16T23:34:03.501Z,60.20
2022-12-16T23:36:23.993Z,51.05
2022-12-16T23:38:44.028Z,41.88
2022-12-16T23:41:03.926Z,42.85
2022-12-16T23:43:23.702Z,43.58
2022-12-16T23:45:43.661Z,46.05
2022-12-16T23:48:03.387Z,41.85
2022-12-16T23:50:23.714Z,39.65
2022-12-16T23:52:43.374Z,41.38
2022-12-16T23:55:03.177Z,37.75
2022-12-16T23:57:22.814Z,41.65
2022-12-16T23:59:42.515Z,44.33
